This is the latest recevied weather packets stored in our database for station/object DH1FR-13. If no packets are shown the sender has not sent any weather packets the latest 10 day(s).
| Time | Temp. | Humidity | Pressure | Rain* | Wind** | Luminosity | Snow |
|---|---|---|---|---|---|---|---|
| 1787422800 | 15° C | 82% | 1023.3 hPa | 6.86 mm | 0 m/s | - | - |
| 1787422201 | 15.56° C | 81% | 1023.3 hPa | 6.86 mm | 0 m/s | - | - |
| 1787421601 | 15.56° C | 81% | 1023.2 hPa | 6.86 mm | 0 m/s | - | - |
| 1787421001 | 16.11° C | 81% | 1023.2 hPa | 6.86 mm | 0 m/s | - | - |
| 1787420401 | 16.67° C | 79% | 1023 hPa | 6.86 mm | 0 m/s | - | - |
| 1787419800 | 17.22° C | 76% | 1023 hPa | 6.86 mm | 0 m/s | - | - |
| 1787419201 | 18.33° C | 77% | 1022.9 hPa | 6.86 mm | 0 m/s | - | - |
| 1787418601 | 17.22° C | 77% | 1022.9 hPa | 6.86 mm | 0 m/s | - | - |
| 1787418001 | 17.78° C | 75% | 1022.9 hPa | 6.86 mm | 0 m/s | - | - |
| 1787417401 | 17.22° C | 78% | 1022.8 hPa | 6.86 mm | 0 m/s | - | - |
| 1787416801 | 16.67° C | 82% | 1022.8 hPa | 6.86 mm | 0 m/s | - | - |
| 1787416201 | 16.67° C | 83% | 1023 hPa | 6.86 mm | 0 m/s | - | - |
| 1787415601 | 16.67° C | 83% | 1022.7 hPa | 6.86 mm | 0 m/s | - | - |
| 1787415001 | 15.56° C | 86% | 1022.6 hPa | 6.86 mm | 0 m/s | - | - |
| 1787414401 | 15.56° C | 85% | 1022.9 hPa | 6.86 mm | 0 m/s | - | - |
| 1787413801 | 15° C | 86% | 1022.9 hPa | 6.86 mm | 0 m/s | - | - |
| 1787413201 | 15° C | 86% | 1022.8 hPa | 6.86 mm | 0 m/s | - | - |
| 1787412600 | 15° C | 87% | 1022.9 hPa | 6.86 mm | 0 m/s | - | - |
| 1787412001 | 14.44° C | 87% | 1023 hPa | 6.86 mm | 0 m/s | - | - |
| 1787411402 | 16.11° C | 78% | 1022.8 hPa | 6.1 mm | 0 m/s | - | - |
| 1787410801 | 16.67° C | 78% | 1022.3 hPa | 6.1 mm | 0 m/s | - | - |
| 1787410201 | 17.22° C | 76% | 1022.2 hPa | 6.1 mm | 0 m/s | - | - |
| 1787409601 | 17.22° C | 78% | 1022.2 hPa | 6.1 mm | 0 m/s | - | - |
| 1787409001 | 16.67° C | 81% | 1022.3 hPa | 6.1 mm | 0 m/s | - | - |
| 1787408401 | 17.22° C | 78% | 1022.2 hPa | 6.1 mm | 0 m/s | - | - |
* Rain latest hour (hover to see other rain measurements)
** Current wind speed in m/s (hover to see current wind gust speed)